createdAt,value
2019-05-11T00:01:01.358Z,11.50
2019-05-11T00:03:30.041Z,11.50
2019-05-11T00:05:58.786Z,11.50
2019-05-11T00:08:27.414Z,11.50
2019-05-11T00:10:56.099Z,11.50
2019-05-11T00:13:24.821Z,11.40
2019-05-11T00:15:54.204Z,11.50
2019-05-11T00:18:22.566Z,11.40
2019-05-11T00:20:51.078Z,11.40
2019-05-11T00:23:19.650Z,11.40
2019-05-11T00:25:48.213Z,11.30
2019-05-11T00:28:16.735Z,11.30
2019-05-11T00:30:45.391Z,11.30
2019-05-11T00:33:14.065Z,11.30
2019-05-11T00:35:42.806Z,11.20
2019-05-11T00:38:11.455Z,11.20
2019-05-11T00:40:40.225Z,11.20
2019-05-11T00:43:08.648Z,11.20
2019-05-11T00:45:37.292Z,11.20
2019-05-11T00:48:05.688Z,11.20
2019-05-11T00:50:39.430Z,11.10
2019-05-11T00:53:04.378Z,11.10
2019-05-11T00:55:33.060Z,11.10
2019-05-11T00:58:01.768Z,11.10
2019-05-11T01:00:30.425Z,11.10
2019-05-11T01:02:59.103Z,11.10
2019-05-11T01:05:27.623Z,11.10
2019-05-11T01:07:56.268Z,11.10
2019-05-11T01:10:41.047Z,11.20
2019-05-11T01:12:55.704Z,11.20
2019-05-11T01:15:24.486Z,11.10
2019-05-11T01:17:52.866Z,11.10
2019-05-11T01:20:21.618Z,11.10
2019-05-11T01:22:50.015Z,11.10
2019-05-11T01:25:18.701Z,11.20
2019-05-11T01:27:48.035Z,11.10
2019-05-11T01:30:17.621Z,11.10
2019-05-11T01:32:46.098Z,11.10
2019-05-11T01:35:14.704Z,11.10
2019-05-11T01:37:43.380Z,11.00
2019-05-11T01:40:12.362Z,11.00
2019-05-11T01:42:41.170Z,11.00
2019-05-11T01:45:09.630Z,11.00
2019-05-11T01:47:38.309Z,11.00
2019-05-11T01:50:07.030Z,11.00
2019-05-11T01:52:35.713Z,11.00
2019-05-11T01:55:04.173Z,11.00
2019-05-11T01:57:32.465Z,11.00
2019-05-11T02:00:01.129Z,11.00
2019-05-11T02:02:29.812Z,10.90
2019-05-11T02:05:16.321Z,10.90
2019-05-11T02:07:45.008Z,10.80
2019-05-11T02:10:13.709Z,10.80
2019-05-11T02:12:42.389Z,10.80
2019-05-11T02:15:11.065Z,10.80
2019-05-11T02:17:39.741Z,10.80
2019-05-11T02:20:08.460Z,10.80
2019-05-11T02:22:36.928Z,10.80
2019-05-11T02:25:05.704Z,10.80
2019-05-11T02:27:34.507Z,10.90
2019-05-11T02:30:03.388Z,10.80
2019-05-11T02:32:31.764Z,10.80
2019-05-11T02:35:00.697Z,10.80
2019-05-11T02:37:29.154Z,10.80
2019-05-11T02:39:57.624Z,10.80
2019-05-11T02:42:26.427Z,10.80
2019-05-11T02:44:55.080Z,10.80
2019-05-11T02:47:23.784Z,10.80
2019-05-11T02:49:52.500Z,10.80
2019-05-11T02:52:22.078Z,10.80
2019-05-11T02:54:52.202Z,10.80
2019-05-11T02:57:20.779Z,10.80
2019-05-11T02:59:49.439Z,10.80
2019-05-11T03:02:18.078Z,10.80
2019-05-11T03:04:46.312Z,10.80
2019-05-11T03:07:15.098Z,10.80
2019-05-11T03:09:43.827Z,10.80
2019-05-11T03:12:12.471Z,10.80
2019-05-11T03:14:40.942Z,10.80
2019-05-11T03:17:16.784Z,10.80
2019-05-11T03:19:45.488Z,10.80
2019-05-11T03:22:14.114Z,10.80
2019-05-11T03:24:43.153Z,10.80
2019-05-11T03:27:11.544Z,10.80
2019-05-11T03:29:41.148Z,10.80
2019-05-11T03:32:09.979Z,10.80
2019-05-11T03:34:38.771Z,10.70
2019-05-11T03:37:07.521Z,10.70
2019-05-11T03:39:36.213Z,10.80
2019-05-11T03:42:14.642Z,10.80
2019-05-11T03:44:35.413Z,10.70
2019-05-11T03:47:03.931Z,10.80
2019-05-11T03:49:32.631Z,10.70
2019-05-11T03:52:00.975Z,10.70
2019-05-11T03:54:32.991Z,10.70
2019-05-11T03:57:01.936Z,10.70
2019-05-11T03:59:30.611Z,10.70
2019-05-11T04:01:59.394Z,10.70
2019-05-11T04:04:29.785Z,10.60
2019-05-11T04:06:59.224Z,10.60
2019-05-11T04:09:30.942Z,10.60
2019-05-11T04:12:01.577Z,10.60
2019-05-11T04:14:33.820Z,10.60
2019-05-11T04:17:05.668Z,10.50
2019-05-11T04:19:34.675Z,10.50
2019-05-11T04:22:06.253Z,10.50
2019-05-11T04:24:37.781Z,10.40
2019-05-11T04:27:12.806Z,10.40
2019-05-11T04:29:46.359Z,10.30
2019-05-11T04:32:18.332Z,10.30
2019-05-11T04:34:48.882Z,10.20
2019-05-11T04:37:17.974Z,10.20
2019-05-11T04:39:48.208Z,10.20
2019-05-11T04:42:20.157Z,10.10
2019-05-11T04:44:52.576Z,10.10
2019-05-11T04:47:24.492Z,10.10
2019-05-11T04:49:53.881Z,10.10
2019-05-11T04:52:22.578Z,10.10
2019-05-11T04:54:51.299Z,10.10
2019-05-11T04:57:19.955Z,10.10
2019-05-11T04:59:48.622Z,10.10
2019-05-11T05:02:17.327Z,10.10
2019-05-11T05:04:45.989Z,10.10
2019-05-11T05:07:16.682Z,10.00
2019-05-11T05:09:45.456Z,10.10
2019-05-11T05:12:15.499Z,10.00
2019-05-11T05:14:44.506Z,10.00
2019-05-11T05:17:12.975Z,10.00
2019-05-11T05:19:42.767Z,10.00
2019-05-11T05:22:11.911Z,10.00
2019-05-11T05:24:40.620Z,10.00
2019-05-11T05:27:09.075Z,10.00
2019-05-11T05:29:37.482Z,10.00
2019-05-11T05:32:06.901Z,10.00
2019-05-11T05:34:35.602Z,10.00
2019-05-11T05:37:04.235Z,10.00
2019-05-11T05:39:32.955Z,10.10
2019-05-11T05:42:01.608Z,10.10
2019-05-11T05:44:30.294Z,10.10
2019-05-11T05:46:58.999Z,10.10
2019-05-11T05:49:27.647Z,10.10
2019-05-11T05:51:58.526Z,10.20
2019-05-11T05:54:26.498Z,10.20
2019-05-11T05:56:54.960Z,10.20
2019-05-11T05:59:23.626Z,10.30
2019-05-11T06:02:01.762Z,10.30
2019-05-11T06:04:39.694Z,10.30
2019-05-11T06:07:17.080Z,10.30
2019-05-11T06:09:52.407Z,10.30
2019-05-11T06:12:28.681Z,10.30
2019-05-11T06:15:10.913Z,10.30
2019-05-11T06:17:49.032Z,10.40
2019-05-11T06:20:32.098Z,10.40
2019-05-11T06:23:09.308Z,10.40
2019-05-11T06:25:41.519Z,10.40
2019-05-11T06:28:19.375Z,10.40
2019-05-11T06:30:55.442Z,10.40
2019-05-11T06:33:34.129Z,10.50
2019-05-11T06:36:14.100Z,10.60
2019-05-11T06:38:47.664Z,10.70
2019-05-11T06:41:22.613Z,10.80
2019-05-11T06:44:01.771Z,10.90
2019-05-11T06:46:37.293Z,11.00
2019-05-11T06:49:14.208Z,11.10
2019-05-11T06:51:59.377Z,11.20
2019-05-11T06:54:38.637Z,11.30
2019-05-11T06:57:16.827Z,11.30
2019-05-11T06:59:53.167Z,11.30
2019-05-11T07:02:28.439Z,11.50
2019-05-11T07:05:06.362Z,12.00
2019-05-11T07:07:47.492Z,12.30
2019-05-11T07:10:22.067Z,12.60
2019-05-11T07:12:58.151Z,12.80
2019-05-11T07:15:35.519Z,12.90
2019-05-11T07:18:14.220Z,12.90
2019-05-11T07:20:51.101Z,13.20
2019-05-11T07:23:30.315Z,13.40
2019-05-11T07:26:05.083Z,13.50
2019-05-11T07:28:43.070Z,13.70
2019-05-11T07:31:20.865Z,13.80
2019-05-11T07:34:01.845Z,13.60
2019-05-11T07:36:38.737Z,13.60
2019-05-11T07:39:15.399Z,13.60
2019-05-11T07:41:58.305Z,13.60
2019-05-11T07:44:37.887Z,13.70
2019-05-11T07:47:18.694Z,13.90
2019-05-11T07:49:57.735Z,13.80
2019-05-11T07:52:31.328Z,13.90
2019-05-11T07:55:09.738Z,13.90
2019-05-11T07:57:48.750Z,13.80
2019-05-11T08:00:27.857Z,13.60
2019-05-11T08:03:17.952Z,13.50
2019-05-11T08:05:58.221Z,13.40
2019-05-11T08:08:38.238Z,13.40
2019-05-11T08:11:10.744Z,13.30
2019-05-11T08:13:48.227Z,13.30
2019-05-11T08:16:22.719Z,13.20
2019-05-11T08:18:58.907Z,13.30
2019-05-11T08:21:35.042Z,13.40
2019-05-11T08:24:12.658Z,13.40
2019-05-11T08:26:53.508Z,13.60
2019-05-11T08:29:31.022Z,13.80
2019-05-11T08:32:08.291Z,13.70
2019-05-11T08:34:44.713Z,13.70
2019-05-11T08:37:30.605Z,13.50
2019-05-11T08:40:07.909Z,13.20
2019-05-11T08:42:41.950Z,13.20
2019-05-11T08:45:23.647Z,13.30
2019-05-11T08:47:57.738Z,13.20
2019-05-11T08:50:33.977Z,13.10
2019-05-11T08:53:12.838Z,13.20
2019-05-11T08:55:48.879Z,13.20
2019-05-11T08:58:33.771Z,13.20
2019-05-11T09:01:12.186Z,13.20
2019-05-11T09:03:50.656Z,13.10
2019-05-11T09:06:37.507Z,13.00
2019-05-11T09:09:14.287Z,12.90
2019-05-11T09:11:50.801Z,12.90
2019-05-11T09:14:22.017Z,13.00
2019-05-11T09:16:59.151Z,13.00
2019-05-11T09:19:42.210Z,13.10
2019-05-11T09:22:18.645Z,13.00
2019-05-11T09:24:58.265Z,13.00
2019-05-11T09:27:37.636Z,13.10
2019-05-11T09:30:19.276Z,13.20
2019-05-11T09:32:59.691Z,13.20
2019-05-11T09:35:47.643Z,13.20
2019-05-11T09:38:19.183Z,13.20
2019-05-11T09:40:58.402Z,13.20
2019-05-11T09:43:32.158Z,13.20
2019-05-11T09:46:20.826Z,13.20
2019-05-11T09:48:58.776Z,13.20
2019-05-11T09:51:37.961Z,13.30
2019-05-11T09:54:13.761Z,13.30
2019-05-11T09:56:57.840Z,13.40
2019-05-11T09:59:38.637Z,13.40
2019-05-11T10:02:21.061Z,13.80
2019-05-11T10:04:54.759Z,14.60
2019-05-11T10:07:33.680Z,15.40
2019-05-11T10:10:11.452Z,16.40
2019-05-11T10:12:44.642Z,17.10
2019-05-11T10:15:27.952Z,17.00
2019-05-11T10:18:02.467Z,16.60
2019-05-11T10:20:39.252Z,16.10
2019-05-11T10:23:14.477Z,15.60
2019-05-11T10:25:58.775Z,15.00
2019-05-11T10:28:35.937Z,14.70
2019-05-11T10:31:12.432Z,14.60
2019-05-11T10:33:53.690Z,14.60
2019-05-11T10:36:32.855Z,14.60
2019-05-11T10:39:11.413Z,15.20
2019-05-11T10:41:43.989Z,15.70
2019-05-11T10:44:24.253Z,15.60
2019-05-11T10:47:00.827Z,15.90
2019-05-11T10:49:40.869Z,16.30
2019-05-11T10:52:14.874Z,16.10
2019-05-11T10:54:47.811Z,15.90
2019-05-11T10:57:22.297Z,15.60
2019-05-11T10:59:54.692Z,15.40
2019-05-11T11:02:32.873Z,15.30
2019-05-11T11:05:08.488Z,15.30
2019-05-11T11:07:43.079Z,15.10
2019-05-11T11:10:22.152Z,15.10
2019-05-11T11:13:00.626Z,15.20
2019-05-11T11:15:40.109Z,15.30
2019-05-11T11:18:19.281Z,15.30
2019-05-11T11:20:59.687Z,15.20
2019-05-11T11:23:35.351Z,15.40
2019-05-11T11:26:08.350Z,16.10
2019-05-11T11:28:43.544Z,16.60
2019-05-11T11:31:18.815Z,16.40
2019-05-11T11:33:58.295Z,16.30
2019-05-11T11:36:33.071Z,16.10
2019-05-11T11:39:09.398Z,16.00
2019-05-11T11:41:44.593Z,15.90
2019-05-11T11:44:28.617Z,16.20
2019-05-11T11:47:08.919Z,16.30
2019-05-11T11:49:47.577Z,16.50
2019-05-11T11:52:20.113Z,17.10
2019-05-11T11:54:54.893Z,17.00
2019-05-11T11:57:39.290Z,16.70
2019-05-11T12:00:11.841Z,16.40
2019-05-11T12:02:55.225Z,16.20
2019-05-11T12:05:35.354Z,16.30
2019-05-11T12:08:22.981Z,16.50
2019-05-11T12:10:59.036Z,16.60
2019-05-11T12:13:39.478Z,16.80
2019-05-11T12:16:12.657Z,16.90
2019-05-11T12:18:49.350Z,17.00
2019-05-11T12:21:27.557Z,17.10
2019-05-11T12:24:04.154Z,17.20
2019-05-11T12:26:43.886Z,17.20
2019-05-11T12:29:21.242Z,17.20
2019-05-11T12:31:58.820Z,17.40
2019-05-11T12:34:37.535Z,17.50
2019-05-11T12:37:13.877Z,17.30
2019-05-11T12:39:52.042Z,17.20
2019-05-11T12:42:24.333Z,17.20
2019-05-11T12:44:52.975Z,17.10
2019-05-11T12:47:28.312Z,17.10
2019-05-11T12:50:10.515Z,17.10
2019-05-11T12:52:47.695Z,17.10
2019-05-11T12:55:23.534Z,17.20
2019-05-11T12:58:00.212Z,17.20
2019-05-11T13:00:38.915Z,17.20
2019-05-11T13:03:14.851Z,17.00
2019-05-11T13:05:55.160Z,16.70
2019-05-11T13:08:38.896Z,16.70
2019-05-11T13:11:18.427Z,16.70
2019-05-11T13:13:58.382Z,16.80
2019-05-11T13:16:33.146Z,16.80
2019-05-11T13:19:09.095Z,16.70
2019-05-11T13:21:44.910Z,16.70
2019-05-11T13:24:24.064Z,16.90
2019-05-11T13:27:02.435Z,17.00
2019-05-11T13:29:40.155Z,17.00
2019-05-11T13:32:19.917Z,16.90
2019-05-11T13:35:09.104Z,16.60
2019-05-11T13:37:48.874Z,16.50
2019-05-11T13:40:27.705Z,16.30
2019-05-11T13:43:04.344Z,16.30
2019-05-11T13:45:42.777Z,16.40
2019-05-11T13:48:19.438Z,16.50
2019-05-11T13:50:54.086Z,16.60
2019-05-11T13:53:34.530Z,16.70
2019-05-11T13:56:09.569Z,16.70
2019-05-11T13:58:45.964Z,16.80
2019-05-11T14:01:22.491Z,16.80
2019-05-11T14:04:11.042Z,16.70
2019-05-11T14:06:48.210Z,16.40
2019-05-11T14:09:28.789Z,16.40
2019-05-11T14:12:07.747Z,16.50
2019-05-11T14:14:41.830Z,16.50
2019-05-11T14:17:18.669Z,16.50
2019-05-11T14:20:02.366Z,16.60
2019-05-11T14:22:47.930Z,16.60
2019-05-11T14:25:33.937Z,16.60
2019-05-11T14:28:09.054Z,16.60
2019-05-11T14:30:41.351Z,16.60
2019-05-11T14:33:18.698Z,16.60
2019-05-11T14:35:54.722Z,16.50
2019-05-11T14:38:33.043Z,16.60
2019-05-11T14:41:14.540Z,16.60
2019-05-11T14:43:58.538Z,16.60
2019-05-11T14:46:34.361Z,16.50
2019-05-11T14:49:14.739Z,16.40
2019-05-11T14:51:51.318Z,16.20
2019-05-11T14:54:28.960Z,16.20
2019-05-11T14:57:04.640Z,16.20
2019-05-11T14:59:41.484Z,16.20
2019-05-11T15:02:37.620Z,16.30
2019-05-11T15:05:18.163Z,16.20
2019-05-11T15:07:54.990Z,16.20
2019-05-11T15:10:38.198Z,16.30
2019-05-11T15:13:18.534Z,16.30
2019-05-11T15:15:52.935Z,16.40
2019-05-11T15:18:38.614Z,16.30
2019-05-11T15:21:11.210Z,16.40
2019-05-11T15:23:49.013Z,16.30
2019-05-11T15:26:29.427Z,16.30
2019-05-11T15:29:08.159Z,16.40
2019-05-11T15:31:48.842Z,16.40
2019-05-11T15:34:26.068Z,16.30
2019-05-11T15:37:08.346Z,16.20
2019-05-11T15:39:42.063Z,16.20
2019-05-11T15:42:19.778Z,16.10
2019-05-11T15:44:58.599Z,16.00
2019-05-11T15:47:33.525Z,16.00
2019-05-11T15:50:14.465Z,15.90
2019-05-11T15:52:53.077Z,15.90
2019-05-11T15:55:32.559Z,16.00
2019-05-11T15:58:10.828Z,16.00
2019-05-11T16:00:49.141Z,16.00
2019-05-11T16:03:18.865Z,16.00
2019-05-11T16:05:58.136Z,15.90
2019-05-11T16:08:34.049Z,15.80
2019-05-11T16:11:08.445Z,15.70
2019-05-11T16:13:48.372Z,15.60
2019-05-11T16:16:22.967Z,15.70
2019-05-11T16:19:10.620Z,15.60
2019-05-11T16:21:40.625Z,15.60
2019-05-11T16:24:21.371Z,15.50
2019-05-11T16:26:58.260Z,15.50
2019-05-11T16:29:38.310Z,15.50
2019-05-11T16:32:13.099Z,15.40
2019-05-11T16:34:47.106Z,15.40
2019-05-11T16:37:21.733Z,15.30
2019-05-11T16:40:00.930Z,15.30
2019-05-11T16:42:43.556Z,15.20
2019-05-11T16:45:19.483Z,15.20
2019-05-11T16:47:52.899Z,15.30
2019-05-11T16:50:28.267Z,15.20
2019-05-11T16:53:04.173Z,15.10
2019-05-11T16:55:48.627Z,15.10
2019-05-11T16:58:24.620Z,15.10
2019-05-11T17:01:08.532Z,15.00
2019-05-11T17:03:53.864Z,14.90
2019-05-11T17:06:31.869Z,14.70
2019-05-11T17:09:10.102Z,14.60
2019-05-11T17:11:49.100Z,14.60
2019-05-11T17:14:21.630Z,14.50
2019-05-11T17:17:02.585Z,14.50
2019-05-11T17:19:45.303Z,14.40
2019-05-11T17:22:10.694Z,14.40
2019-05-11T17:24:43.754Z,14.40
2019-05-11T17:27:20.736Z,14.40
2019-05-11T17:29:59.347Z,14.40
2019-05-11T17:32:38.451Z,14.40
2019-05-11T17:35:10.647Z,14.40
2019-05-11T17:37:49.239Z,14.40
2019-05-11T17:40:25.328Z,14.40
2019-05-11T17:43:02.330Z,14.30
2019-05-11T17:45:39.042Z,14.20
2019-05-11T17:48:17.860Z,14.30
2019-05-11T17:50:50.906Z,14.20
2019-05-11T17:53:28.503Z,14.20
2019-05-11T17:56:03.205Z,14.20
2019-05-11T17:58:38.002Z,14.20
2019-05-11T18:01:15.008Z,14.10
2019-05-11T18:03:51.618Z,14.00
2019-05-11T18:06:30.019Z,13.90
2019-05-11T18:09:12.040Z,13.90
2019-05-11T18:11:52.746Z,13.90
2019-05-11T18:14:36.093Z,13.80
2019-05-11T18:17:10.807Z,13.80
2019-05-11T18:19:47.125Z,13.80
2019-05-11T18:22:32.532Z,13.70
2019-05-11T18:25:09.017Z,13.70
2019-05-11T18:27:47.997Z,13.60
2019-05-11T18:30:26.158Z,13.50
2019-05-11T18:33:03.530Z,13.50
2019-05-11T18:35:39.928Z,13.50
2019-05-11T18:38:18.295Z,13.40
2019-05-11T18:40:58.191Z,13.40
2019-05-11T18:43:32.891Z,13.30
2019-05-11T18:46:09.394Z,13.30
2019-05-11T18:48:44.471Z,13.30
2019-05-11T18:51:17.013Z,13.20
2019-05-11T18:53:52.095Z,13.20
2019-05-11T18:56:31.586Z,13.10
2019-05-11T18:59:08.871Z,13.10
2019-05-11T19:01:48.362Z,13.10
2019-05-11T19:04:23.977Z,13.10
2019-05-11T19:07:13.028Z,13.00
2019-05-11T19:09:37.987Z,12.90
2019-05-11T19:12:10.723Z,12.90
2019-05-11T19:14:43.914Z,12.80
2019-05-11T19:17:18.188Z,12.70
2019-05-11T19:19:57.863Z,12.70
2019-05-11T19:22:34.426Z,12.60
2019-05-11T19:25:09.033Z,12.60
2019-05-11T19:27:40.932Z,12.50
2019-05-11T19:30:11.897Z,12.40
2019-05-11T19:32:48.680Z,12.30
2019-05-11T19:35:24.620Z,12.30
2019-05-11T19:38:03.257Z,12.20
2019-05-11T19:40:38.418Z,12.20
2019-05-11T19:43:08.319Z,12.10
2019-05-11T19:45:38.435Z,12.10
2019-05-11T19:48:08.766Z,12.00
2019-05-11T19:50:40.966Z,11.90
2019-05-11T19:53:10.594Z,11.90
2019-05-11T19:55:39.180Z,11.70
2019-05-11T19:58:07.888Z,11.70
2019-05-11T20:00:38.052Z,11.70
2019-05-11T20:03:09.228Z,11.60
2019-05-11T20:05:38.438Z,11.50
2019-05-11T20:08:07.936Z,11.50
2019-05-11T20:10:38.313Z,11.50
2019-05-11T20:13:07.938Z,11.50
2019-05-11T20:15:38.079Z,11.40
2019-05-11T20:18:09.225Z,11.30
2019-05-11T20:20:41.858Z,11.30
2019-05-11T20:23:11.452Z,11.20
2019-05-11T20:25:47.755Z,11.20
2019-05-11T20:28:19.723Z,11.10
2019-05-11T20:30:48.438Z,11.00
2019-05-11T20:33:18.978Z,11.00
2019-05-11T20:35:48.812Z,10.90
2019-05-11T20:38:18.787Z,10.80
2019-05-11T20:40:48.461Z,10.80
2019-05-11T20:43:19.283Z,10.70
2019-05-11T20:45:48.802Z,10.70
2019-05-11T20:48:18.505Z,10.60
2019-05-11T20:50:48.330Z,10.60
2019-05-11T20:53:17.955Z,10.60
2019-05-11T20:55:47.824Z,10.50
2019-05-11T20:58:18.985Z,10.50
2019-05-11T21:00:49.097Z,10.50
2019-05-11T21:03:18.025Z,10.40
2019-05-11T21:05:48.260Z,10.50
2019-05-11T21:08:17.769Z,10.50
2019-05-11T21:10:48.962Z,10.40
2019-05-11T21:13:18.075Z,10.40
2019-05-11T21:15:49.188Z,10.40
2019-05-11T21:18:18.514Z,10.40
2019-05-11T21:20:48.387Z,10.40
2019-05-11T21:23:18.743Z,10.50
2019-05-11T21:25:47.295Z,10.40
2019-05-11T21:28:15.940Z,10.40
2019-05-11T21:30:44.446Z,10.40
2019-05-11T21:33:12.892Z,10.40
2019-05-11T21:35:41.744Z,10.30
2019-05-11T21:38:10.632Z,10.30
2019-05-11T21:40:39.071Z,10.30
2019-05-11T21:43:08.745Z,10.20
2019-05-11T21:45:40.528Z,10.20
2019-05-11T21:48:08.304Z,10.10
2019-05-11T21:50:36.974Z,10.10
2019-05-11T21:53:10.238Z,10.00
2019-05-11T21:55:37.797Z,10.00
2019-05-11T21:58:08.857Z,10.00
2019-05-11T22:00:38.636Z,10.00
2019-05-11T22:03:10.350Z,10.00
2019-05-11T22:05:39.308Z,9.90
2019-05-11T22:08:08.552Z,9.90
2019-05-11T22:10:38.535Z,9.90
2019-05-11T22:13:07.229Z,9.80
2019-05-11T22:15:38.341Z,9.80
2019-05-11T22:18:08.058Z,9.80
2019-05-11T22:20:40.497Z,9.80
2019-05-11T22:23:08.455Z,9.80
2019-05-11T22:25:38.205Z,9.70
2019-05-11T22:28:08.505Z,9.70
2019-05-11T22:30:39.098Z,9.70
2019-05-11T22:33:09.020Z,9.70
2019-05-11T22:35:37.918Z,9.60
2019-05-11T22:38:08.406Z,9.60
2019-05-11T22:40:38.389Z,9.60
2019-05-11T22:43:09.316Z,9.60
2019-05-11T22:45:38.322Z,9.50
2019-05-11T22:48:08.126Z,9.50
2019-05-11T22:50:38.145Z,9.50
2019-05-11T22:53:08.675Z,9.40
2019-05-11T22:55:38.173Z,9.40
2019-05-11T22:58:08.455Z,9.40
2019-05-11T23:00:41.537Z,9.40
2019-05-11T23:03:10.945Z,9.40
2019-05-11T23:05:40.164Z,9.30
2019-05-11T23:08:08.739Z,9.30
2019-05-11T23:10:38.700Z,9.30
2019-05-11T23:13:08.237Z,9.30
2019-05-11T23:15:40.319Z,9.20
2019-05-11T23:18:08.893Z,9.20
2019-05-11T23:20:38.608Z,9.20
2019-05-11T23:23:08.777Z,9.20
2019-05-11T23:25:37.554Z,9.10
2019-05-11T23:28:05.918Z,9.10
2019-05-11T23:30:34.579Z,9.10
2019-05-11T23:33:03.290Z,9.10
2019-05-11T23:35:32.048Z,9.00
2019-05-11T23:38:00.894Z,9.00
2019-05-11T23:40:29.592Z,8.90
2019-05-11T23:42:58.070Z,8.90
2019-05-11T23:45:27.999Z,8.90
2019-05-11T23:47:58.853Z,8.90
2019-05-11T23:50:28.279Z,8.90
2019-05-11T23:53:05.903Z,8.90
2019-05-11T23:55:28.925Z,8.90
2019-05-11T23:57:57.895Z,8.90
